createdAt,value
2022-11-03T05:46:15.280Z,1000.96
2022-11-03T05:47:16.258Z,1000.94
2022-11-03T05:48:16.251Z,1000.93
2022-11-03T05:49:16.228Z,1000.93
2022-11-03T05:50:16.216Z,1000.89
2022-11-03T05:51:16.201Z,1000.90
2022-11-03T05:52:16.190Z,1000.87
2022-11-03T05:53:16.212Z,1000.88
2022-11-03T05:54:19.501Z,1000.85
2022-11-03T05:55:16.198Z,1000.82
2022-11-03T05:56:16.152Z,1000.83
2022-11-03T05:57:16.152Z,1000.79
2022-11-03T05:58:16.143Z,1000.81
2022-11-03T05:59:16.123Z,1000.82
2022-11-03T06:00:16.104Z,1000.80
2022-11-03T06:01:16.164Z,1000.80
2022-11-03T06:02:16.225Z,1000.80
2022-11-03T06:03:16.088Z,1000.79
2022-11-03T06:04:16.059Z,1000.80
2022-11-03T06:05:16.059Z,1000.80
2022-11-03T06:06:16.033Z,1000.80
2022-11-03T06:07:16.055Z,1000.79
2022-11-03T06:08:16.060Z,1000.76
2022-11-03T06:09:16.029Z,1000.75
2022-11-03T06:10:15.996Z,1000.76
2022-11-03T06:11:15.994Z,1000.78
2022-11-03T06:12:15.970Z,1000.77
2022-11-03T06:13:15.985Z,1000.78
2022-11-03T06:14:18.651Z,1000.77
2022-11-03T06:15:15.944Z,1000.77
2022-11-03T06:16:15.935Z,1000.76
2022-11-03T06:17:15.932Z,1000.73
2022-11-03T06:18:15.928Z,1000.71
2022-11-03T06:19:15.898Z,1000.68
2022-11-03T06:20:15.891Z,1000.70
2022-11-03T06:21:15.894Z,1000.69
2022-11-03T06:22:15.873Z,1000.70
2022-11-03T06:23:15.874Z,1000.66
2022-11-03T06:24:15.851Z,1000.67
2022-11-03T06:25:15.847Z,1000.65
2022-11-03T06:26:15.822Z,1000.62
2022-11-03T06:27:15.814Z,1000.58
2022-11-03T06:28:15.822Z,1000.58
2022-11-03T06:29:15.807Z,1000.57
2022-11-03T06:30:15.785Z,1000.56
2022-11-03T06:31:18.899Z,1000.56
2022-11-03T06:32:15.768Z,1000.56
2022-11-03T06:33:15.784Z,1000.52
2022-11-03T06:34:15.738Z,1000.50
2022-11-03T06:35:15.741Z,1000.48
2022-11-03T06:36:15.725Z,1000.42
2022-11-03T06:37:15.712Z,1000.43
2022-11-03T06:38:15.725Z,1000.41
2022-11-03T06:39:15.697Z,1000.40
2022-11-03T06:40:15.687Z,1000.42
2022-11-03T06:41:15.682Z,1000.45
2022-11-03T06:42:15.664Z,1000.45
2022-11-03T06:43:15.666Z,1000.45
2022-11-03T06:44:15.633Z,1000.43
2022-11-03T06:45:15.628Z,1000.42
2022-11-03T06:46:15.618Z,1000.41
2022-11-03T06:47:15.610Z,1000.41
2022-11-03T06:48:15.609Z,1000.33
2022-11-03T06:49:15.600Z,1000.32
2022-11-03T06:50:15.605Z,1000.33
2022-11-03T06:51:15.566Z,1000.31
2022-11-03T06:52:15.551Z,1000.31
2022-11-03T06:53:15.574Z,1000.31
2022-11-03T06:54:15.538Z,1000.32
2022-11-03T06:55:16.969Z,1000.32
2022-11-03T06:56:15.509Z,1000.32
2022-11-03T06:57:15.507Z,1000.32
2022-11-03T06:58:15.513Z,1000.32
2022-11-03T06:59:15.486Z,1000.30
2022-11-03T07:00:37.766Z,1000.29
2022-11-03T07:01:15.669Z,1000.24
2022-11-03T07:02:15.574Z,1000.25
2022-11-03T07:03:15.444Z,1000.24
2022-11-03T07:04:15.455Z,1000.23
2022-11-03T07:05:15.424Z,1000.22
2022-11-03T07:06:15.416Z,1000.23
2022-11-03T07:07:15.406Z,1000.23
2022-11-03T07:08:15.385Z,1000.23
2022-11-03T07:09:15.410Z,1000.22
2022-11-03T07:10:15.370Z,1000.23
2022-11-03T07:11:15.357Z,1000.24
2022-11-03T07:12:15.338Z,1000.25
2022-11-03T07:13:15.345Z,1000.24
2022-11-03T07:14:15.342Z,1000.20
2022-11-03T07:15:15.316Z,1000.17
2022-11-03T07:16:18.658Z,1000.17
2022-11-03T07:17:15.308Z,1000.13
2022-11-03T07:18:15.291Z,1000.14
2022-11-03T07:19:15.283Z,1000.13
2022-11-03T07:20:15.257Z,1000.14
2022-11-03T07:21:15.263Z,1000.14
2022-11-03T07:22:15.238Z,1000.09
2022-11-03T07:23:15.232Z,1000.08
2022-11-03T07:24:15.245Z,1000.07
2022-11-03T07:25:15.218Z,1000.04
2022-11-03T07:26:15.206Z,1000.01
2022-11-03T07:27:15.189Z,1000.01
2022-11-03T07:28:15.173Z,1000.04
2022-11-03T07:29:15.182Z,1000.02
2022-11-03T07:30:15.163Z,1000.02
2022-11-03T07:31:16.489Z,999.98
2022-11-03T07:32:15.136Z,999.95
2022-11-03T07:33:15.127Z,999.94
2022-11-03T07:34:15.127Z,999.95
2022-11-03T07:35:15.108Z,999.96
2022-11-03T07:36:16.406Z,999.93
2022-11-03T07:37:15.100Z,999.92
2022-11-03T07:38:15.076Z,999.91
2022-11-03T07:39:15.082Z,999.90
2022-11-03T07:40:15.053Z,999.92
2022-11-03T07:41:15.065Z,999.92
2022-11-03T07:42:15.037Z,999.90
2022-11-03T07:43:15.032Z,999.88
2022-11-03T07:44:15.020Z,999.86
2022-11-03T07:45:15.001Z,999.80
2022-11-03T07:46:14.999Z,999.73
2022-11-03T07:47:14.979Z,999.67
2022-11-03T07:48:14.984Z,999.62
2022-11-03T07:49:14.977Z,999.57
2022-11-03T07:50:14.948Z,999.59
2022-11-03T07:51:14.958Z,999.60
2022-11-03T07:52:14.937Z,999.63
2022-11-03T07:53:14.917Z,999.63
2022-11-03T07:54:14.930Z,999.63
2022-11-03T07:55:14.905Z,999.59
2022-11-03T07:56:14.956Z,999.57
2022-11-03T07:57:14.873Z,999.52
2022-11-03T07:58:14.862Z,999.52
2022-11-03T07:59:14.916Z,999.48
2022-11-03T08:00:14.841Z,999.48
2022-11-03T08:01:14.888Z,999.48
2022-11-03T08:02:14.937Z,999.47
2022-11-03T08:03:14.815Z,999.45
2022-11-03T08:04:14.833Z,999.43
2022-11-03T08:05:14.893Z,999.40
2022-11-03T08:06:18.766Z,999.37
2022-11-03T08:07:14.784Z,999.33
2022-11-03T08:08:14.762Z,999.29
2022-11-03T08:09:14.764Z,999.27
2022-11-03T08:10:14.781Z,999.24
2022-11-03T08:12:14.715Z,999.25
2022-11-03T08:13:14.709Z,999.27
2022-11-03T08:14:14.711Z,999.24
2022-11-03T08:15:14.722Z,999.22
2022-11-03T08:16:14.670Z,999.20
2022-11-03T08:17:14.663Z,999.21
2022-11-03T08:18:14.653Z,999.22
2022-11-03T08:19:14.676Z,999.25
2022-11-03T08:20:14.632Z,999.25
2022-11-03T08:21:14.617Z,999.24
2022-11-03T08:22:14.597Z,999.23
2022-11-03T08:23:30.361Z,999.19
2022-11-03T08:24:14.668Z,999.16
2022-11-03T08:25:14.580Z,999.11
2022-11-03T08:26:14.563Z,999.09
2022-11-03T08:27:14.554Z,999.08
2022-11-03T08:28:14.568Z,999.06
2022-11-03T08:29:14.547Z,999.05
2022-11-03T08:30:14.516Z,999.04
2022-11-03T08:31:14.518Z,999.04
2022-11-03T08:32:14.495Z,999.00
2022-11-03T08:33:14.569Z,998.99
2022-11-03T08:34:14.488Z,998.98
2022-11-03T08:35:14.467Z,998.95
2022-11-03T08:36:14.445Z,998.94
2022-11-03T08:37:14.442Z,998.92
2022-11-03T08:38:14.421Z,998.90
2022-11-03T08:39:14.430Z,998.88
2022-11-03T08:40:14.413Z,998.86
2022-11-03T08:41:14.409Z,998.87
2022-11-03T08:42:14.389Z,998.85
2022-11-03T08:43:14.377Z,998.87
2022-11-03T08:44:14.397Z,998.86
2022-11-03T08:45:14.350Z,998.85
2022-11-03T08:46:17.652Z,998.85
2022-11-03T08:47:14.328Z,998.84
2022-11-03T08:48:14.324Z,998.82
2022-11-03T08:49:14.333Z,998.83
2022-11-03T08:50:14.293Z,998.83
2022-11-03T08:51:14.608Z,998.82
2022-11-03T08:52:14.274Z,998.84
2022-11-03T08:53:14.259Z,998.83
2022-11-03T08:54:14.264Z,998.81
2022-11-03T08:55:14.236Z,998.75
2022-11-03T08:56:15.917Z,998.75
2022-11-03T08:57:14.220Z,998.73
2022-11-03T08:58:14.199Z,998.77
2022-11-03T08:59:14.209Z,998.77
2022-11-03T09:00:14.207Z,998.78
2022-11-03T09:01:14.297Z,998.77
2022-11-03T09:02:14.171Z,998.79
2022-11-03T09:03:14.241Z,998.76
2022-11-03T09:04:14.214Z,998.75
2022-11-03T09:05:14.129Z,998.74
2022-11-03T09:06:20.680Z,998.72
2022-11-03T09:07:14.244Z,998.69
2022-11-03T09:11:14.059Z,998.65
2022-11-03T09:12:14.042Z,998.63
2022-11-03T09:13:14.038Z,998.62
2022-11-03T09:14:14.035Z,998.63
2022-11-03T09:15:14.021Z,998.62
2022-11-03T09:16:13.996Z,998.66
2022-11-03T09:17:14.017Z,998.66
2022-11-03T09:18:13.980Z,998.64
2022-11-03T09:19:13.992Z,998.62
2022-11-03T09:20:13.960Z,998.58
2022-11-03T09:21:13.958Z,998.57
2022-11-03T09:22:14.158Z,998.54
2022-11-03T09:23:13.934Z,998.53
2022-11-03T09:24:13.921Z,998.49
2022-11-03T09:25:13.905Z,998.51
2022-11-03T09:26:13.890Z,998.48
2022-11-03T09:27:13.889Z,998.46
2022-11-03T09:28:13.866Z,998.46
2022-11-03T09:29:13.914Z,998.48
2022-11-03T09:30:14.582Z,998.49
2022-11-03T09:31:13.849Z,998.49
2022-11-03T09:32:15.722Z,998.46
2022-11-03T09:33:13.822Z,998.43
2022-11-03T09:34:13.825Z,998.37
2022-11-03T09:35:13.798Z,998.35
2022-11-03T09:36:13.786Z,998.34
2022-11-03T09:37:13.763Z,998.27
2022-11-03T09:38:13.760Z,998.24
2022-11-03T09:39:13.762Z,998.21
2022-11-03T09:40:13.742Z,998.17
2022-11-03T09:41:25.429Z,998.15
2022-11-03T09:42:13.738Z,998.13
2022-11-03T09:43:13.704Z,998.10
2022-11-03T09:44:13.712Z,998.10
2022-11-03T09:45:13.693Z,998.11
2022-11-03T09:46:13.674Z,998.15
2022-11-03T09:47:13.660Z,998.15
2022-11-03T09:48:13.656Z,998.14
2022-11-03T09:49:13.649Z,998.15
2022-11-03T09:50:13.638Z,998.12
2022-11-03T09:51:13.614Z,998.13
2022-11-03T09:52:13.612Z,998.09
2022-11-03T09:53:13.618Z,998.08
2022-11-03T09:54:13.601Z,998.02
2022-11-03T09:55:13.571Z,998.02
2022-11-03T09:56:13.621Z,998.00
2022-11-03T09:57:13.553Z,997.97
2022-11-03T09:58:13.554Z,997.97
2022-11-03T09:59:13.540Z,997.93
2022-11-03T10:00:13.519Z,997.89
2022-11-03T10:01:13.647Z,998.00
2022-11-03T10:02:13.553Z,997.90
2022-11-03T10:03:13.501Z,997.92
2022-11-03T10:04:13.487Z,997.90
2022-11-03T10:05:13.527Z,997.87
2022-11-03T10:06:15.513Z,997.91
2022-11-03T10:07:13.443Z,997.87
2022-11-03T10:08:17.012Z,997.86
2022-11-03T10:09:13.429Z,997.83
2022-11-03T10:10:13.420Z,997.82
2022-11-03T10:11:13.400Z,997.81
2022-11-03T10:12:13.448Z,997.82
2022-11-03T10:13:13.390Z,997.75
2022-11-03T10:14:13.379Z,997.77
2022-11-03T10:15:13.356Z,997.74
2022-11-03T10:16:13.386Z,997.72
2022-11-03T10:17:13.339Z,997.69
2022-11-03T10:18:13.342Z,997.68
2022-11-03T10:19:13.318Z,997.64
2022-11-03T10:20:13.310Z,997.59
2022-11-03T10:21:13.287Z,997.57
2022-11-03T10:22:13.287Z,997.57
2022-11-03T10:23:13.281Z,997.57
2022-11-03T10:24:13.272Z,997.55
2022-11-03T10:25:13.242Z,997.54
2022-11-03T10:26:13.321Z,997.52
2022-11-03T10:27:13.231Z,997.49
2022-11-03T10:28:14.682Z,997.48
2022-11-03T10:29:13.243Z,997.46
2022-11-03T10:30:13.197Z,997.41
2022-11-03T10:31:13.668Z,997.39
2022-11-03T10:32:13.179Z,997.38
2022-11-03T10:33:13.181Z,997.36
2022-11-03T10:34:13.164Z,997.32
2022-11-03T10:35:13.138Z,997.30
2022-11-03T10:36:13.297Z,997.28
2022-11-03T10:37:13.116Z,997.26
2022-11-03T10:38:13.113Z,997.23
2022-11-03T10:39:13.112Z,997.22
2022-11-03T10:40:22.431Z,997.23
2022-11-03T10:41:13.085Z,997.21
2022-11-03T10:42:13.073Z,997.21
2022-11-03T10:43:13.053Z,997.22
2022-11-03T10:44:13.067Z,997.19
2022-11-03T10:45:13.038Z,997.19
2022-11-03T10:46:29.735Z,997.15
2022-11-03T10:47:13.025Z,997.13
2022-11-03T10:48:13.005Z,997.11
2022-11-03T10:49:13.007Z,997.09
2022-11-03T10:50:12.985Z,997.10
2022-11-03T10:51:13.003Z,997.10
2022-11-03T10:52:12.963Z,997.09
2022-11-03T10:53:13.017Z,997.09
2022-11-03T10:54:12.954Z,997.10
2022-11-03T10:55:13.032Z,997.09
2022-11-03T10:56:12.919Z,997.07
2022-11-03T10:57:12.899Z,997.05
2022-11-03T10:58:12.896Z,997.02
2022-11-03T10:59:12.899Z,997.00
2022-11-03T11:00:12.877Z,996.94
2022-11-03T11:01:12.942Z,996.91
2022-11-03T11:02:12.932Z,996.89
2022-11-03T11:03:16.377Z,996.82
2022-11-03T11:04:12.914Z,996.80
2022-11-03T11:05:12.822Z,996.80
2022-11-03T11:06:12.812Z,996.76
2022-11-03T11:07:12.793Z,996.72
2022-11-03T11:08:12.849Z,996.71
2022-11-03T11:09:12.794Z,996.67
2022-11-03T11:10:12.765Z,996.63
2022-11-03T11:11:12.754Z,996.59
2022-11-03T11:12:12.747Z,996.54
2022-11-03T11:13:12.728Z,996.51
2022-11-03T11:14:12.760Z,996.47
2022-11-03T11:15:12.719Z,996.43
2022-11-03T11:16:12.704Z,996.40
2022-11-03T11:17:12.695Z,996.37
2022-11-03T11:18:12.734Z,996.33
2022-11-03T11:19:12.695Z,996.26
2022-11-03T11:20:12.673Z,996.20
2022-11-03T11:21:12.657Z,996.11
2022-11-03T11:22:12.644Z,996.04
2022-11-03T11:23:12.637Z,995.96
2022-11-03T11:24:12.640Z,995.92
2022-11-03T11:25:12.614Z,995.86
2022-11-03T11:26:12.606Z,995.81
2022-11-03T11:27:12.583Z,995.81
2022-11-03T11:28:12.583Z,995.85
2022-11-03T11:29:12.579Z,995.84
2022-11-03T11:30:12.556Z,995.83
2022-11-03T11:31:12.560Z,995.84
2022-11-03T11:32:12.542Z,995.80
2022-11-03T11:33:12.513Z,995.84
2022-11-03T11:34:12.516Z,995.83
2022-11-03T11:35:12.537Z,995.84
2022-11-03T11:36:12.492Z,995.87
2022-11-03T11:37:12.472Z,995.89
2022-11-03T11:38:12.474Z,995.89
2022-11-03T11:39:12.452Z,995.89
2022-11-03T11:40:12.482Z,995.85
2022-11-03T11:41:12.435Z,995.80
2022-11-03T11:42:12.650Z,995.77
2022-11-03T11:43:12.411Z,995.72
2022-11-03T11:44:12.412Z,995.65
2022-11-03T11:45:12.441Z,995.62
2022-11-03T11:46:12.388Z,995.61
2022-11-03T11:47:12.378Z,995.62
2022-11-03T11:48:17.515Z,995.67
2022-11-03T11:49:12.354Z,995.66
2022-11-03T11:50:12.422Z,995.67
2022-11-03T11:51:12.325Z,995.66
2022-11-03T11:52:15.492Z,995.66
2022-11-03T11:53:12.310Z,995.60
2022-11-03T11:54:19.524Z,995.60
2022-11-03T11:55:12.314Z,995.54
2022-11-03T11:56:12.276Z,995.51
2022-11-03T11:57:12.283Z,995.47
2022-11-03T11:58:12.259Z,995.43
2022-11-03T11:59:12.240Z,995.40
2022-11-03T12:00:12.308Z,995.39
2022-11-03T12:01:12.269Z,995.40
2022-11-03T12:02:12.228Z,995.39
2022-11-03T12:03:12.473Z,995.39
2022-11-03T12:04:12.322Z,995.32
2022-11-03T12:05:12.205Z,995.26
2022-11-03T12:06:12.166Z,995.21
2022-11-03T12:07:12.164Z,995.17
2022-11-03T12:08:12.149Z,995.18
2022-11-03T12:09:12.512Z,995.19
2022-11-03T12:10:12.187Z,995.20
2022-11-03T12:11:12.155Z,995.20
2022-11-03T12:12:12.111Z,995.19
2022-11-03T12:13:12.085Z,995.17
2022-11-03T12:14:12.084Z,995.12
2022-11-03T12:15:12.105Z,995.11
2022-11-03T12:16:12.061Z,995.12
2022-11-03T12:17:12.041Z,995.13
2022-11-03T12:18:12.062Z,995.13
2022-11-03T12:19:12.022Z,995.09
2022-11-03T12:20:12.031Z,995.07
2022-11-03T12:21:11.999Z,995.07
2022-11-03T12:22:11.994Z,995.06
2022-11-03T12:23:11.985Z,995.05
2022-11-03T12:24:11.977Z,995.03
2022-11-03T12:25:11.981Z,995.04
2022-11-03T12:26:11.966Z,995.01
2022-11-03T12:27:11.942Z,994.97
2022-11-03T12:28:11.944Z,994.91
2022-11-03T12:29:11.914Z,994.82
2022-11-03T12:30:11.934Z,994.69
2022-11-03T12:31:11.903Z,994.70
2022-11-03T12:32:25.837Z,994.74
2022-11-03T12:33:11.880Z,994.82
2022-11-03T12:34:11.866Z,994.84
2022-11-03T12:35:11.854Z,994.86
2022-11-03T12:36:11.865Z,994.85
2022-11-03T12:37:11.822Z,994.84
2022-11-03T12:38:11.827Z,994.83
2022-11-03T12:39:11.810Z,994.84
2022-11-03T12:40:11.803Z,994.77
2022-11-03T12:41:11.807Z,994.75
2022-11-03T12:42:11.782Z,994.72
2022-11-03T12:43:11.768Z,994.71
2022-11-03T12:44:11.815Z,994.68
2022-11-03T12:45:11.746Z,994.70
2022-11-03T12:46:11.754Z,994.69
2022-11-03T12:47:11.727Z,994.66
2022-11-03T12:48:11.711Z,994.61
2022-11-03T12:49:11.710Z,994.58
2022-11-03T12:50:11.705Z,994.52
2022-11-03T12:51:11.687Z,994.51
2022-11-03T12:52:11.678Z,994.54
2022-11-03T12:53:11.656Z,994.52
2022-11-03T12:54:11.647Z,994.52
2022-11-03T12:55:11.664Z,994.54
2022-11-03T12:56:11.637Z,994.56
2022-11-03T12:57:11.625Z,994.57
2022-11-03T12:58:11.608Z,994.55
2022-11-03T12:59:11.594Z,994.52
2022-11-03T13:00:11.589Z,994.50
2022-11-03T13:01:11.740Z,994.48
2022-11-03T13:02:11.775Z,994.43
2022-11-03T13:03:11.558Z,994.38
2022-11-03T13:04:11.544Z,994.31
2022-11-03T13:05:11.516Z,994.23
2022-11-03T13:06:11.536Z,994.21
2022-11-03T13:07:11.501Z,994.22
2022-11-03T13:08:11.562Z,994.20
2022-11-03T13:09:11.521Z,994.20
2022-11-03T13:10:11.486Z,994.19
2022-11-03T13:11:11.475Z,994.14
2022-11-03T13:12:11.461Z,994.10
2022-11-03T13:13:11.450Z,994.04
2022-11-03T13:14:11.427Z,993.94
2022-11-03T13:15:11.416Z,993.93
2022-11-03T13:16:11.433Z,993.92
2022-11-03T13:17:11.404Z,993.91
2022-11-03T13:18:14.012Z,993.88
2022-11-03T13:19:11.378Z,993.85
2022-11-03T13:20:11.432Z,993.84
2022-11-03T13:21:11.374Z,993.78
2022-11-03T13:22:11.342Z,993.71
2022-11-03T13:23:11.405Z,993.67
2022-11-03T13:24:11.339Z,993.64
2022-11-03T13:25:11.328Z,993.68
2022-11-03T13:26:11.317Z,993.63
2022-11-03T13:27:11.296Z,993.65
2022-11-03T13:28:11.277Z,993.60
2022-11-03T13:29:11.265Z,993.61
2022-11-03T13:30:11.257Z,993.61
2022-11-03T13:31:11.239Z,993.60
2022-11-03T13:32:11.261Z,993.59
2022-11-03T13:33:11.490Z,993.62
2022-11-03T13:34:11.217Z,993.57
2022-11-03T13:35:13.953Z,993.52
2022-11-03T13:36:11.245Z,993.53
2022-11-03T13:37:11.182Z,993.53
2022-11-03T13:38:11.167Z,993.53
2022-11-03T13:39:11.143Z,993.47
2022-11-03T13:40:29.127Z,993.50
2022-11-03T13:41:11.137Z,993.46
2022-11-03T13:42:11.132Z,993.43
2022-11-03T13:43:11.454Z,993.36
2022-11-03T13:44:11.100Z,993.39
2022-11-03T13:45:11.077Z,993.34
2022-11-03T13:46:11.084Z,993.30
2022-11-03T13:47:11.993Z,993.24
2022-11-03T13:50:15.152Z,993.10
2022-11-03T13:51:11.056Z,993.07
2022-11-03T13:52:11.025Z,993.00
2022-11-03T13:56:16.798Z,992.88
2022-11-03T13:59:26.868Z,992.76
2022-11-03T14:00:10.930Z,992.72
2022-11-03T14:01:11.013Z,992.71
2022-11-03T14:05:11.654Z,992.77
2022-11-03T14:06:10.861Z,992.75
2022-11-03T14:07:10.866Z,992.73
2022-11-03T14:08:10.883Z,992.72
2022-11-03T14:09:10.830Z,992.68
2022-11-03T14:10:10.815Z,992.65
2022-11-03T14:11:10.813Z,992.63
2022-11-03T14:12:10.817Z,992.57
2022-11-03T14:13:10.784Z,992.54
2022-11-03T14:14:10.768Z,992.48
2022-11-03T14:15:10.758Z,992.48
2022-11-03T14:16:10.804Z,992.43
2022-11-03T14:17:10.761Z,992.44
2022-11-03T14:18:10.722Z,992.42
2022-11-03T14:19:10.715Z,992.40
2022-11-03T14:20:10.710Z,992.37
2022-11-03T14:21:10.695Z,992.38
2022-11-03T14:22:10.694Z,992.42
2022-11-03T14:23:10.763Z,992.41
2022-11-03T14:24:10.653Z,992.41
2022-11-03T14:25:10.705Z,992.38
2022-11-03T14:26:23.809Z,992.38
2022-11-03T14:27:10.648Z,992.37
2022-11-03T14:28:10.703Z,992.33
2022-11-03T14:29:10.608Z,992.33
2022-11-03T14:30:10.591Z,992.34
2022-11-03T14:31:10.584Z,992.29
2022-11-03T14:32:10.585Z,992.31
2022-11-03T14:33:10.795Z,992.29
2022-11-03T14:34:10.561Z,992.28
2022-11-03T14:35:10.659Z,992.23
2022-11-03T14:36:10.519Z,992.22
2022-11-03T14:37:10.600Z,992.15
2022-11-03T14:38:10.502Z,992.17
2022-11-03T14:39:10.502Z,992.15
2022-11-03T14:40:10.487Z,992.13
2022-11-03T14:41:10.478Z,992.11
2022-11-03T14:42:10.475Z,992.07
2022-11-03T14:43:10.776Z,992.04
2022-11-03T14:44:10.444Z,992.02
2022-11-03T14:45:10.434Z,991.98
2022-11-03T14:46:10.446Z,991.98
2022-11-03T14:47:10.437Z,991.94
2022-11-03T14:48:10.560Z,991.89
2022-11-03T14:49:10.393Z,991.90
2022-11-03T14:50:10.372Z,991.89
2022-11-03T14:51:10.372Z,991.89
2022-11-03T14:52:10.361Z,991.88
2022-11-03T14:53:10.344Z,991.86
2022-11-03T14:54:10.336Z,991.84
2022-11-03T14:55:10.328Z,991.81
2022-11-03T14:56:10.308Z,991.79
2022-11-03T14:57:10.378Z,991.78
2022-11-03T14:58:10.291Z,991.78
2022-11-03T14:59:10.280Z,991.74
2022-11-03T15:00:10.270Z,991.67
2022-11-03T15:01:10.347Z,991.65
2022-11-03T15:02:10.421Z,991.61
2022-11-03T15:03:10.236Z,991.59
2022-11-03T15:04:10.228Z,991.59
2022-11-03T15:05:10.220Z,991.55
2022-11-03T15:06:10.213Z,991.59
2022-11-03T15:07:10.214Z,991.58
2022-11-03T15:08:10.314Z,991.59
2022-11-03T15:09:10.172Z,991.57
2022-11-03T15:10:10.154Z,991.55
2022-11-03T15:11:10.153Z,991.52
2022-11-03T15:12:10.164Z,991.48
2022-11-03T15:13:10.271Z,991.44
2022-11-03T15:14:10.131Z,991.42
2022-11-03T15:15:10.108Z,991.40
2022-11-03T15:16:10.095Z,991.33
2022-11-03T15:17:10.102Z,991.30
2022-11-03T15:18:10.209Z,991.26
2022-11-03T15:19:10.056Z,991.25
2022-11-03T15:20:10.043Z,991.20
2022-11-03T15:21:10.046Z,991.18
2022-11-03T15:22:10.046Z,991.17
2022-11-03T15:26:09.982Z,991.18
2022-11-03T15:27:09.992Z,991.14
2022-11-03T15:28:10.177Z,991.12
2022-11-03T15:29:09.956Z,991.06
2022-11-03T15:30:09.931Z,991.06
2022-11-03T15:31:09.930Z,991.05
2022-11-03T15:32:09.921Z,991.08
2022-11-03T15:33:09.987Z,991.07
2022-11-03T15:34:09.893Z,991.06
2022-11-03T15:35:09.891Z,991.06
2022-11-03T15:36:09.921Z,991.04
2022-11-03T15:37:09.880Z,991.06
2022-11-03T15:38:10.012Z,991.09
2022-11-03T15:39:09.842Z,991.07
2022-11-03T15:40:09.835Z,991.07
2022-11-03T15:41:09.818Z,991.03
2022-11-03T15:42:09.825Z,990.99
2022-11-03T15:43:09.802Z,990.96
2022-11-03T15:44:09.785Z,990.92
2022-11-03T15:45:09.773Z,990.89
2022-11-03T15:46:09.762Z,990.84
2022-11-03T15:47:09.781Z,990.87
2022-11-03T15:48:10.092Z,990.83
2022-11-03T15:49:09.736Z,990.85
2022-11-03T15:50:09.719Z,990.81
2022-11-03T15:51:09.709Z,990.80
2022-11-03T15:52:09.714Z,990.73
2022-11-03T15:53:09.694Z,990.70
2022-11-03T15:54:09.675Z,990.70
2022-11-03T15:55:09.679Z,990.68
2022-11-03T15:56:09.656Z,990.67
2022-11-03T15:57:09.756Z,990.67
2022-11-03T15:58:09.924Z,990.66
2022-11-03T15:59:09.634Z,990.64
2022-11-03T16:00:09.621Z,990.62
2022-11-03T16:01:09.659Z,990.59
2022-11-03T16:02:27.701Z,990.53
2022-11-03T16:03:09.789Z,990.53
2022-11-03T16:04:09.580Z,990.52
2022-11-03T16:05:09.584Z,990.50
2022-11-03T16:06:09.549Z,990.45
2022-11-03T16:07:09.552Z,990.44
2022-11-03T16:08:09.904Z,990.42
2022-11-03T16:09:09.519Z,990.46
2022-11-03T16:10:09.511Z,990.48
2022-11-03T16:11:09.504Z,990.52
2022-11-03T16:12:09.495Z,990.57
2022-11-03T16:13:09.476Z,990.63
2022-11-03T16:14:10.431Z,990.68
2022-11-03T16:15:09.458Z,990.70
2022-11-03T16:16:09.444Z,990.76
2022-11-03T16:17:09.466Z,990.85
2022-11-03T16:18:09.783Z,990.81
2022-11-03T16:19:09.415Z,990.75
2022-11-03T16:20:09.402Z,990.77
2022-11-03T16:21:09.392Z,990.72
2022-11-03T16:22:09.391Z,990.71
2022-11-03T16:23:09.370Z,990.73
2022-11-03T16:24:09.350Z,990.67
